Obercorn, Luxembourg
Current Conditions -  °F | °C
As of 12:20 PM on Friday 24 Oct 2014 (Local Time) from ELLX Reporting Station
Few Clouds Few Clouds  
Wind Chill: 50°   Ceiling: Unl
Heat Index: 50°   Visibility: 6mi
Dew Point: 41°   Wind: 5mph
Humidity: 71%   Direction: 170°S
Pressure: 30.18"   Gusts: NA
Location:  49.51°N, 5.9°E
Report Text: ELLX 241020Z 17004KT 130V240 9999 FEW015 10/05 Q1022 NOSIG
Loading
Personal Weather Stations






























Interactive Weather Map
Tropical Storm Tracking
New forecast layout! Learn more

10-Day Weather Forecast

Advertisements
Track Severe Weather on mobile